Time;durP1;ratioP1;P1;durP2;ratioP2;P2;SDS_P1;SDS_P2;PMS_P1;PMS_P2;Temp;Humidity;BMP_temperature;BMP_pressure;BME280_temperature;BME280_humidity;BME280_pressure;Samples;Min_cycle;Max_cycle;Signal;HPM_P1;HPM_P2
2023/09/21 00:02:18;;;;;;;3.57;2.77;;;;;;;15.64;74.72;100257.03;5067998;28;20232;-73
2023/09/21 00:04:44;;;;;;;5.90;2.87;;;;;;;15.60;74.55;100242.91;5067623;28;20214;-73
2023/09/21 00:07:11;;;;;;;4.10;2.80;;;;;;;15.61;74.54;100252.41;5067316;28;20226;-73
2023/09/21 00:09:38;;;;;;;6.90;2.93;;;;;;;15.60;75.15;100255.44;5069519;28;20333;-73
2023/09/21 00:12:05;;;;;;;5.07;2.60;;;;;;;15.58;75.09;100241.75;5068653;28;20211;-73
2023/09/21 00:14:34;;;;;;;6.73;2.90;;;;;;;15.57;75.16;100251.63;5068643;28;20209;-73
2023/09/21 00:17:02;;;;;;;5.23;2.70;;;;;;;15.56;74.95;100238.66;5065075;28;20223;-73
2023/09/21 00:19:31;;;;;;;5.63;2.87;;;;;;;15.55;75.33;100234.47;5066754;28;20657;-73
2023/09/21 00:21:58;;;;;;;5.27;2.53;;;;;;;15.53;74.81;100234.84;5065312;28;20197;-73
2023/09/21 00:24:24;;;;;;;4.20;2.70;;;;;;;15.53;75.22;100229.53;5067708;28;20252;-73
2023/09/21 00:26:51;;;;;;;5.83;2.60;;;;;;;15.51;74.90;100231.78;5068577;28;20223;-73
2023/09/21 00:29:17;;;;;;;3.80;2.60;;;;;;;15.50;75.70;100238.25;5066923;28;20250;-73
2023/09/21 00:31:44;;;;;;;5.43;2.80;;;;;;;15.50;75.41;100227.59;5052436;28;20214;-73
2023/09/21 00:34:10;;;;;;;2.47;2.27;;;;;;;15.50;75.84;100230.28;5064562;28;20572;-74
2023/09/21 00:36:42;;;;;;;3.17;2.83;;;;;;;15.49;75.73;100220.75;5050104;28;20229;-73
2023/09/21 00:39:11;;;;;;;4.97;2.60;;;;;;;15.49;76.09;100222.66;5065642;28;20214;-73
2023/09/21 00:41:37;;;;;;;4.87;2.80;;;;;;;15.48;76.17;100232.50;5050090;28;20198;-73
2023/09/21 00:44:08;;;;;;;3.40;2.67;;;;;;;15.47;75.56;100227.56;5045941;28;20206;-73
2023/09/21 00:46:36;;;;;;;4.53;2.40;;;;;;;15.46;75.74;100234.00;5065863;28;20231;-73
2023/09/21 00:49:04;;;;;;;5.80;2.70;;;;;;;15.45;75.68;100225.28;5048046;28;20317;-73
2023/09/21 00:51:32;;;;;;;4.33;2.47;;;;;;;15.45;76.02;100224.50;5049189;28;20499;-73
2023/09/21 00:54:00;;;;;;;7.60;2.73;;;;;;;15.44;76.14;100212.34;5050877;28;20208;-73
2023/09/21 00:56:29;;;;;;;4.80;2.70;;;;;;;15.44;76.68;100213.09;5045432;28;20202;-73
2023/09/21 00:58:57;;;;;;;4.30;2.80;;;;;;;15.43;76.72;100206.22;5047651;28;20239;-73
2023/09/21 01:01:27;;;;;;;3.20;2.53;;;;;;;15.41;76.72;100200.53;5047085;28;20302;-74
2023/09/21 01:03:55;;;;;;;5.70;3.30;;;;;;;15.41;76.69;100202.41;5063664;28;20605;-73
2023/09/21 01:06:22;;;;;;;5.00;2.40;;;;;;;15.38;76.30;100195.91;5050926;28;20214;-73
2023/09/21 01:08:49;;;;;;;4.37;2.70;;;;;;;15.36;76.12;100197.44;5065585;28;20300;-73
2023/09/21 01:11:18;;;;;;;2.63;2.00;;;;;;;15.33;76.00;100193.63;5046908;28;20290;-73
2023/09/21 01:13:47;;;;;;;3.77;2.50;;;;;;;15.31;76.47;100195.09;5065980;28;20207;-73
2023/09/21 01:16:15;;;;;;;4.83;2.87;;;;;;;15.29;76.38;100194.66;5063472;28;20195;-73
2023/09/21 01:18:42;;;;;;;2.83;2.37;;;;;;;15.26;77.30;100198.06;5046267;28;20222;-74
2023/09/21 01:21:10;;;;;;;4.00;2.80;;;;;;;15.23;76.57;100199.56;5048204;28;20195;-73
2023/09/21 01:23:43;;;;;;;4.20;2.87;;;;;;;15.21;77.01;100191.19;5066421;28;20199;-73
2023/09/21 01:26:11;;;;;;;2.97;2.67;;;;;;;15.19;77.10;100193.44;5063990;28;20271;-73
2023/09/21 01:28:38;;;;;;;6.33;2.60;;;;;;;15.17;77.68;100194.94;5049284;28;20799;-74
2023/09/21 01:31:05;;;;;;;2.57;2.10;;;;;;;15.14;77.33;100193.00;5065510;28;20238;-73
2023/09/21 01:33:33;;;;;;;3.03;2.67;;;;;;;15.12;77.24;100187.28;5064574;28;20198;-73
2023/09/21 01:35:59;;;;;;;6.10;2.60;;;;;;;15.09;78.06;100178.13;5049346;28;20199;-73
2023/09/21 01:38:27;;;;;;;3.67;2.97;;;;;;;15.06;78.22;100173.53;5064551;28;20218;-73
2023/09/21 01:40:54;;;;;;;6.93;2.80;;;;;;;15.04;78.06;100165.16;5048203;28;20256;-73
2023/09/21 01:43:21;;;;;;;6.17;2.70;;;;;;;15.01;77.94;100170.47;5048141;28;20211;-73
2023/09/21 01:45:49;;;;;;;5.83;2.67;;;;;;;14.98;78.32;100171.94;5049747;28;20293;-73
2023/09/21 01:48:20;;;;;;;2.57;2.10;;;;;;;14.96;78.30;100166.22;5063186;28;20281;-73
2023/09/21 01:50:48;;;;;;;3.20;2.70;;;;;;;14.92;78.27;100165.44;5065875;28;20229;-73
2023/09/21 01:53:16;;;;;;;4.43;2.40;;;;;;;14.89;78.66;100158.16;5064060;28;20198;-74
2023/09/21 01:55:44;;;;;;;3.90;2.37;;;;;;;14.85;77.95;100157.38;5048496;28;20215;-73
2023/09/21 01:58:12;;;;;;;4.30;2.40;;;;;;;14.81;78.35;100151.25;5062566;28;20608;-73
2023/09/21 02:00:40;;;;;;;11.00;3.00;;;;;;;14.78;78.25;100154.63;5046694;28;20601;-73
2023/09/21 02:03:12;;;;;;;4.93;2.30;;;;;;;14.76;78.45;100150.81;5065584;28;20226;-74
2023/09/21 02:05:39;;;;;;;2.70;2.40;;;;;;;14.72;78.85;100148.13;5064015;28;20753;-73
2023/09/21 02:08:05;;;;;;;3.73;2.77;;;;;;;14.69;78.48;100145.44;5062501;28;20699;-73
2023/09/21 02:10:32;;;;;;;4.17;2.57;;;;;;;14.64;78.96;100141.19;5064755;28;20671;-73
2023/09/21 02:13:01;;;;;;;4.23;3.00;;;;;;;14.61;78.92;100147.22;5065132;28;20256;-73
2023/09/21 02:15:30;;;;;;;4.60;2.77;;;;;;;14.59;79.61;100141.50;5049310;28;20206;-73
2023/09/21 02:17:57;;;;;;;3.00;2.70;;;;;;;14.56;80.11;100134.28;5048795;28;20227;-73
2023/09/21 02:20:24;;;;;;;2.67;2.20;;;;;;;14.52;79.73;100130.81;5063804;28;20206;-73
2023/09/21 02:22:52;;;;;;;6.00;2.70;;;;;;;14.48;79.55;100127.31;5062894;28;20202;-73
2023/09/21 02:25:19;;;;;;;2.87;2.50;;;;;;;14.45;79.68;100132.59;5066667;28;20198;-73
2023/09/21 02:27:47;;;;;;;4.63;2.77;;;;;;;14.42;79.82;100122.69;5048601;28;20237;-73
2023/09/21 02:30:16;;;;;;;4.60;3.07;;;;;;;14.38;80.11;100117.34;5066886;28;20527;-73
2023/09/21 02:32:46;;;;;;;3.40;2.73;;;;;;;14.35;80.48;100120.72;5066930;28;20201;-73
2023/09/21 02:35:15;;;;;;;3.13;2.63;;;;;;;14.34;80.69;100118.44;5063570;28;20207;-73
2023/09/21 02:37:45;;;;;;;6.07;3.13;;;;;;;14.30;80.86;100120.28;5064057;28;20606;-73
2023/09/21 02:40:15;;;;;;;7.30;3.23;;;;;;;14.25;80.56;100113.41;5051228;28;20210;-73
2023/09/21 02:42:43;;;;;;;4.03;3.00;;;;;;;14.23;80.97;100118.28;5049980;28;20266;-73
2023/09/21 02:45:11;;;;;;;3.83;2.73;;;;;;;14.21;80.34;100120.53;5048910;28;20223;-73
2023/09/21 02:47:38;;;;;;;4.20;2.50;;;;;;;14.18;80.91;100107.19;5049472;28;20533;-73
2023/09/21 02:50:14;;;;;;;4.60;2.93;;;;;;;14.13;80.68;100108.25;5051393;28;20240;-73
2023/09/21 02:52:46;;;;;;;3.90;2.90;;;;;;;14.11;81.21;100102.56;5065216;28;20205;-73
2023/09/21 02:55:16;;;;;;;4.97;2.90;;;;;;;14.08;81.41;100113.13;5065021;28;20257;-73
2023/09/21 02:57:42;;;;;;;5.70;2.87;;;;;;;14.06;82.01;100120.69;5049923;28;20583;-73
2023/09/21 03:00:21;;;;;;;7.13;3.20;;;;;;;14.02;81.74;100117.22;5051493;28;20192;-73
2023/09/21 03:02:48;;;;;;;5.20;2.70;;;;;;;13.99;81.76;100117.94;5054694;28;20296;-73
2023/09/21 03:05:17;;;;;;;3.73;3.10;;;;;;;13.96;81.66;100110.66;5053476;28;20680;-73
2023/09/21 03:07:44;;;;;;;4.70;2.80;;;;;;;13.92;82.17;100105.31;5050647;28;20664;-73
2023/09/21 03:10:11;;;;;;;5.90;2.77;;;;;;;13.89;82.14;100106.06;5054292;28;20624;-73
2023/09/21 03:12:41;;;;;;;5.40;2.73;;;;;;;13.87;82.25;100110.19;5053450;28;20262;-73
2023/09/21 03:15:13;;;;;;;3.83;2.87;;;;;;;13.83;82.44;100104.84;5065959;28;20207;-73
2023/09/21 03:17:41;;;;;;;4.37;3.00;;;;;;;13.80;82.40;100112.72;5068512;28;20216;-73
2023/09/21 03:20:25;;;;;;;7.57;2.90;;;;;;;13.77;82.47;100105.50;5068836;28;20200;-73
2023/09/21 03:22:56;;;;;;;3.97;3.10;;;;;;;13.75;82.46;100107.72;5051742;28;20251;-73
2023/09/21 03:25:31;;;;;;;6.03;2.90;;;;;;;13.71;82.47;100102.38;5069939;28;20289;-73
2023/09/21 03:27:59;;;;;;;5.43;3.00;;;;;;;13.69;82.84;100103.84;5053399;28;20228;-73
2023/09/21 03:30:27;;;;;;;5.97;3.07;;;;;;;13.66;82.76;100101.94;5055959;28;20204;-73
2023/09/21 03:32:54;;;;;;;3.67;2.70;;;;;;;13.62;83.16;100099.19;5052750;28;20299;-73
2023/09/21 03:35:21;;;;;;;7.87;3.10;;;;;;;13.61;83.17;100094.28;5067514;28;20204;-73
2023/09/21 03:37:48;;;;;;;4.60;2.73;;;;;;;13.58;82.71;100094.97;5053224;28;20586;-73
2023/09/21 03:40:17;;;;;;;3.97;2.63;;;;;;;13.57;83.36;100088.13;5068632;28;20201;-73
2023/09/21 03:42:44;;;;;;;3.50;3.00;;;;;;;13.55;83.61;100093.03;5066992;28;20706;-73
2023/09/21 03:45:15;;;;;;;5.17;3.00;;;;;;;13.52;83.43;100091.88;5052055;28;20262;-72
2023/09/21 03:47:42;;;;;;;3.40;2.80;;;;;;;13.50;84.00;100077.44;5049113;28;20784;-73
2023/09/21 03:50:12;;;;;;;4.10;3.07;;;;;;;13.46;84.04;100082.66;5053192;28;20558;-73
2023/09/21 03:52:42;;;;;;;5.30;3.30;;;;;;;13.45;84.10;100086.44;5053802;28;20200;-73
2023/09/21 03:55:15;;;;;;;6.00;3.57;;;;;;;13.42;84.17;100091.69;5052653;28;20200;-73
2023/09/21 03:57:46;;;;;;;4.90;3.30;;;;;;;13.39;83.74;100081.78;5051421;28;20256;-73
2023/09/21 04:00:29;;;;;;;4.90;3.10;;;;;;;13.35;83.34;100079.09;5068493;28;20448;-73
2023/09/21 04:02:58;;;;;;;6.50;3.37;;;;;;;13.32;83.93;100074.50;5048970;28;20196;-73
2023/09/21 04:05:26;;;;;;;4.50;3.43;;;;;;;13.32;84.09;100073.72;5052574;28;21071;-73
2023/09/21 04:07:53;;;;;;;4.63;3.00;;;;;;;13.32;84.49;100076.38;5068135;28;20240;-73
2023/09/21 04:10:19;;;;;;;3.83;3.43;;;;;;;13.26;84.75;100075.91;5051581;28;20792;-73
2023/09/21 04:12:47;;;;;;;7.43;3.87;;;;;;;13.23;84.67;100073.97;5068309;28;20243;-73
2023/09/21 04:15:18;;;;;;;3.30;3.00;;;;;;;13.22;85.19;100074.31;5048994;28;20197;-73
2023/09/21 04:17:44;;;;;;;4.57;2.90;;;;;;;13.18;84.99;100066.31;5050955;28;20985;-73
2023/09/21 04:20:15;;;;;;;5.20;2.63;;;;;;;13.17;84.63;100066.66;5054080;28;20191;-73
2023/09/21 04:22:43;;;;;;;3.93;3.30;;;;;;;13.15;84.86;100061.72;5066433;28;20593;-73
2023/09/21 04:25:13;;;;;;;4.83;3.17;;;;;;;13.12;84.96;100067.75;5049594;28;20215;-73
2023/09/21 04:27:42;;;;;;;3.87;3.17;;;;;;;13.10;84.91;100058.59;5051253;28;20230;-73
2023/09/21 04:30:14;;;;;;;3.33;2.87;;;;;;;13.09;85.42;100062.38;5049240;28;20247;-73
2023/09/21 04:32:42;;;;;;;4.90;3.20;;;;;;;13.06;85.24;100063.84;5069245;28;20274;-73
2023/09/21 04:35:09;;;;;;;4.90;3.37;;;;;;;13.04;85.54;100058.13;5068417;28;20208;-73
2023/09/21 04:37:38;;;;;;;6.07;3.53;;;;;;;13.02;85.01;100059.59;5048962;28;20217;-73
2023/09/21 04:40:10;;;;;;;5.60;3.90;;;;;;;12.99;85.01;100057.66;5048066;28;20204;-73
2023/09/21 04:42:39;;;;;;;10.13;3.80;;;;;;;12.99;85.42;100049.72;5046494;28;20426;-73
2023/09/21 04:45:09;;;;;;;3.70;3.27;;;;;;;12.98;85.40;100053.47;5064995;28;20211;-73
2023/09/21 04:47:44;;;;;;;5.37;3.50;;;;;;;12.97;85.34;100049.28;5067786;28;20509;-73
2023/09/21 04:50:22;;;;;;;7.03;4.30;;;;;;;12.97;86.05;100050.06;5053476;28;20205;-73
2023/09/21 04:52:54;;;;;;;3.73;3.30;;;;;;;12.96;85.77;100047.75;5050657;28;20200;-73
2023/09/21 04:55:24;;;;;;;4.97;3.60;;;;;;;12.96;85.96;100053.84;5051206;28;20207;-73
2023/09/21 04:58:01;;;;;;;4.93;3.37;;;;;;;12.97;85.88;100054.59;5049952;28;20816;-73
2023/09/21 05:00:29;;;;;;;8.03;3.70;;;;;;;12.98;86.48;100053.47;5072092;28;20580;-73
2023/09/21 05:03:03;;;;;;;7.17;3.77;;;;;;;12.98;86.53;100046.28;5055330;28;20714;-73
2023/09/21 05:05:43;;;;;;;5.00;3.17;;;;;;;12.99;86.05;100057.66;5054756;28;20204;-73
2023/09/21 05:08:10;;;;;;;7.87;3.43;;;;;;;13.02;86.63;100057.72;5048691;28;20719;-73
2023/09/21 05:10:45;;;;;;;7.87;3.83;;;;;;;13.05;86.61;100048.28;5049055;28;20256;-73
2023/09/21 05:13:24;;;;;;;5.23;4.13;;;;;;;13.07;86.98;100046.81;5054223;28;20248;-73
2023/09/21 05:15:52;;;;;;;6.80;3.73;;;;;;;13.13;86.92;100047.28;5066719;28;20201;-73
2023/09/21 05:18:21;;;;;;;6.13;4.47;;;;;;;13.15;86.62;100043.16;5067213;28;20208;-73
2023/09/21 05:20:55;;;;;;;12.97;4.97;;;;;;;13.21;86.48;100038.31;5068789;28;20208;-73
2023/09/21 05:23:28;;;;;;;12.23;5.07;;;;;;;13.26;86.94;100035.38;5051836;28;20204;-73
2023/09/21 05:25:58;;;;;;;12.73;5.03;;;;;;;13.35;86.53;100038.56;5052684;28;20255;-73
2023/09/21 05:28:27;;;;;;;7.60;4.93;;;;;;;13.42;86.79;100039.44;5065927;28;20225;-73
2023/09/21 05:30:56;;;;;;;8.97;5.30;;;;;;;13.49;87.16;100044.81;5066422;28;20208;-73
2023/09/21 05:33:24;;;;;;;10.77;5.50;;;;;;;13.58;86.83;100040.03;5062715;28;20230;-73
2023/09/21 05:35:55;;;;;;;12.93;5.70;;;;;;;13.67;86.93;100043.16;5068669;28;20226;-73
2023/09/21 05:38:40;;;;;;;8.27;5.47;;;;;;;13.74;86.74;100030.03;5048905;28;20242;-73
2023/09/21 05:41:07;;;;;;;5.83;5.27;;;;;;;13.85;87.09;100032.81;5065977;28;20262;-73
2023/09/21 05:43:34;;;;;;;9.90;5.80;;;;;;;13.93;87.00;100029.88;5050233;28;20336;-73
2023/09/21 05:46:11;;;;;;;7.77;5.43;;;;;;;14.02;86.53;100027.72;5064729;28;20205;-73
2023/09/21 05:48:40;;;;;;;11.07;5.40;;;;;;;14.13;86.57;100031.25;5046801;28;20616;-74
2023/09/21 05:51:09;;;;;;;16.23;5.90;;;;;;;14.23;86.97;100033.31;5047465;28;20209;-73
2023/09/21 05:53:39;;;;;;;7.53;5.43;;;;;;;14.34;86.58;100033.44;5064366;28;20263;-73
2023/09/21 05:56:08;;;;;;;9.87;5.57;;;;;;;14.43;87.44;100029.34;5071632;28;20208;-73
2023/09/21 05:58:36;;;;;;;6.80;4.70;;;;;;;14.53;86.71;100030.59;5065788;28;20696;-73
2023/09/21 06:01:06;;;;;;;7.67;5.23;;;;;;;14.64;86.50;100036.78;5064780;28;20265;-73
2023/09/21 06:03:39;;;;;;;8.53;4.93;;;;;;;14.74;86.92;100038.78;5049914;28;20202;-73
2023/09/21 06:06:19;;;;;;;5.40;4.60;;;;;;;14.84;86.84;100038.09;5064043;28;20207;-73
2023/09/21 06:08:52;;;;;;;11.40;4.50;;;;;;;14.93;86.54;100034.03;5066332;28;20222;-73
2023/09/21 06:11:19;;;;;;;7.47;4.47;;;;;;;15.02;86.44;100045.13;5063677;28;20197;-73
2023/09/21 06:13:53;;;;;;;5.77;4.60;;;;;;;15.11;86.20;100037.59;5050102;28;20568;-73
2023/09/21 06:16:25;;;;;;;5.70;4.47;;;;;;;15.21;86.16;100044.88;5048331;28;20194;-73
2023/09/21 06:19:02;;;;;;;4.57;4.07;;;;;;;15.31;86.29;100048.78;5062930;28;20212;-73
2023/09/21 06:21:36;;;;;;;8.03;4.33;;;;;;;15.41;86.43;100042.78;5050449;28;20279;-73
2023/09/21 06:24:04;;;;;;;6.17;4.30;;;;;;;15.52;86.66;100039.06;5045407;28;20295;-73
2023/09/21 06:26:34;;;;;;;4.80;4.07;;;;;;;15.62;86.01;100041.00;5066106;28;20211;-73
2023/09/21 06:29:08;;;;;;;8.53;5.07;;;;;;;15.76;86.44;100038.44;5049023;28;20223;-73
2023/09/21 06:31:38;;;;;;;7.80;5.13;;;;;;;15.86;86.05;100039.63;5043582;28;20248;-74
2023/09/21 06:34:09;;;;;;;7.30;4.77;;;;;;;16.02;85.52;100034.75;5045991;28;20212;-74
2023/09/21 06:36:38;;;;;;;7.20;4.83;;;;;;;16.14;85.61;100031.78;5048122;28;20197;-74
2023/09/21 06:39:09;;;;;;;11.57;4.90;;;;;;;16.28;85.26;100031.81;5065375;28;20611;-74
2023/09/21 06:41:37;;;;;;;8.80;4.80;;;;;;;16.45;85.42;100026.56;5063815;28;20208;-74
2023/09/21 06:44:06;;;;;;;5.83;4.07;;;;;;;16.62;84.26;100028.50;5065315;28;20198;-74
2023/09/21 06:46:34;;;;;;;6.63;4.00;;;;;;;16.76;84.17;100027.78;5046141;28;20217;-74
2023/09/21 06:49:05;;;;;;;8.27;4.37;;;;;;;16.92;84.32;100030.84;5047702;28;20230;-74
2023/09/21 06:51:46;;;;;;;5.20;3.37;;;;;;;17.06;83.63;100026.25;5045525;28;20268;-74
2023/09/21 06:54:15;;;;;;;5.87;3.57;;;;;;;17.20;83.52;100025.47;5043071;28;20711;-74
2023/09/21 06:56:45;;;;;;;3.77;2.93;;;;;;;17.34;83.65;100028.16;5048414;28;20281;-74
2023/09/21 06:59:12;;;;;;;7.17;2.97;;;;;;;17.50;83.45;100017.84;5049496;28;20579;-74
2023/09/21 07:01:46;;;;;;;4.27;3.10;;;;;;;17.63;83.54;100019.72;5051154;28;20206;-74
2023/09/21 07:04:13;;;;;;;5.57;3.07;;;;;;;17.83;82.56;100014.69;5064876;28;20236;-74
2023/09/21 07:06:44;;;;;;;4.53;3.30;;;;;;;18.01;82.46;100018.09;5065040;28;20205;-73
2023/09/21 07:09:11;;;;;;;4.60;3.00;;;;;;;18.17;81.21;100015.72;5064847;28;20214;-73
2023/09/21 07:11:38;;;;;;;5.23;3.20;;;;;;;18.35;80.68;100011.84;5047000;28;20215;-73
2023/09/21 07:14:05;;;;;;;7.43;2.90;;;;;;;18.51;79.88;100009.44;5043117;28;20856;-73
2023/09/21 07:16:34;;;;;;;5.17;2.60;;;;;;;18.65;79.96;100014.72;5048031;28;20213;-74
2023/09/21 07:19:02;;;;;;;4.57;3.00;;;;;;;18.78;79.37;100012.31;5063302;28;21109;-73
2023/09/21 07:21:28;;;;;;;6.00;2.50;;;;;;;18.90;79.26;100007.28;5064443;28;20215;-73
2023/09/21 07:23:56;;;;;;;4.60;2.50;;;;;;;19.03;78.89;100005.63;5062891;28;20222;-73
2023/09/21 07:26:23;;;;;;;3.43;2.43;;;;;;;19.15;77.88;100005.13;5061815;28;20205;-73
2023/09/21 07:28:52;;;;;;;8.40;2.60;;;;;;;19.24;77.81;100002.03;5062317;28;20294;-73
2023/09/21 07:31:18;;;;;;;6.07;2.63;;;;;;;19.32;77.19;100003.47;5061751;28;20195;-74
2023/09/21 07:33:48;;;;;;;3.80;2.67;;;;;;;19.41;76.78;100004.53;5064222;28;20206;-73
2023/09/21 07:36:19;;;;;;;5.33;2.80;;;;;;;19.48;76.89;100003.69;5042131;28;20202;-74
2023/09/21 07:38:48;;;;;;;5.23;2.77;;;;;;;19.53;76.22;100008.63;5047914;28;20306;-73
2023/09/21 07:41:16;;;;;;;4.70;2.60;;;;;;;19.58;75.87;100010.84;5060272;28;20198;-73
2023/09/21 07:43:43;;;;;;;4.87;2.90;;;;;;;19.64;75.51;100009.25;5058606;28;20210;-73
2023/09/21 07:46:11;;;;;;;7.60;3.67;;;;;;;19.72;75.67;100006.09;5047515;28;20264;-74
2023/09/21 07:48:39;;;;;;;2.97;2.37;;;;;;;19.82;75.81;100010.56;5062060;28;20224;-74
2023/09/21 07:51:09;;;;;;;6.37;2.67;;;;;;;19.91;75.88;100010.88;5057800;28;20285;-74
2023/09/21 07:53:40;;;;;;;4.80;2.90;;;;;;;20.04;75.08;99995.78;5061083;28;20248;-74
2023/09/21 07:56:12;;;;;;;6.07;2.63;;;;;;;20.14;74.61;99994.16;5045501;28;20218;-74
2023/09/21 07:58:44;;;;;;;4.30;2.53;;;;;;;20.26;73.50;99991.69;5046278;28;20229;-73
2023/09/21 08:01:13;;;;;;;4.53;2.93;;;;;;;20.39;72.01;99989.22;5043714;28;20221;-73
2023/09/21 08:03:39;;;;;;;5.73;2.60;;;;;;;20.46;73.03;99987.19;5058688;28;20884;-74
2023/09/21 08:06:08;;;;;;;4.80;2.97;;;;;;;20.55;72.39;99987.41;5059749;28;20210;-73
2023/09/21 08:08:38;;;;;;;3.97;2.47;;;;;;;20.66;72.02;99979.22;5059820;28;21940;-74
2023/09/21 08:11:06;;;;;;;6.33;2.70;;;;;;;20.73;71.72;99976.41;5060686;28;20205;-74
2023/09/21 08:13:36;;;;;;;5.13;2.60;;;;;;;20.79;70.95;99972.09;5059623;28;20298;-74
2023/09/21 08:16:04;;;;;;;3.53;2.37;;;;;;;20.88;70.94;99973.13;5041658;28;21108;-74
2023/09/21 08:18:33;;;;;;;4.90;2.67;;;;;;;20.95;71.50;99973.00;5043955;28;20333;-74
2023/09/21 08:21:00;;;;;;;8.03;3.00;;;;;;;21.05;69.98;99966.72;5043077;28;20326;-74
2023/09/21 08:23:28;;;;;;;5.00;2.80;;;;;;;21.15;69.89;99970.38;5042946;28;20244;-74
2023/09/21 08:25:56;;;;;;;3.50;2.70;;;;;;;21.22;69.46;99972.94;5041993;28;20681;-74
2023/09/21 08:28:23;;;;;;;4.53;2.77;;;;;;;21.29;69.28;99973.56;5058740;28;20305;-74
2023/09/21 08:30:50;;;;;;;6.63;2.30;;;;;;;21.36;69.01;99978.81;5054562;28;20187;-74
2023/09/21 08:33:17;;;;;;;3.80;2.43;;;;;;;21.43;69.37;99981.34;5056428;28;20281;-74
2023/09/21 08:35:44;;;;;;;3.23;2.23;;;;;;;21.53;68.84;99961.59;5054280;28;20206;-74
2023/09/21 08:38:10;;;;;;;4.37;2.40;;;;;;;21.58;68.40;99963.78;5055189;28;20347;-74
2023/09/21 08:40:38;;;;;;;3.90;2.80;;;;;;;21.67;67.69;99968.66;5054015;28;20195;-74
2023/09/21 08:43:05;;;;;;;6.70;2.50;;;;;;;21.75;68.22;99970.81;5055884;28;20210;-74
2023/09/21 08:45:32;;;;;;;2.90;2.60;;;;;;;21.80;67.96;99973.00;5054602;28;20226;-74
2023/09/21 08:47:59;;;;;;;5.17;2.47;;;;;;;21.86;68.08;99968.66;5055003;28;20256;-74
2023/09/21 08:50:27;;;;;;;6.17;3.00;;;;;;;21.93;67.48;99968.50;5054355;28;20206;-74
2023/09/21 08:52:55;;;;;;;4.97;2.80;;;;;;;22.01;68.26;99961.81;5054328;28;20217;-74
2023/09/21 08:55:22;;;;;;;5.10;2.47;;;;;;;22.08;67.38;99967.03;5040068;28;20211;-74
2023/09/21 08:57:48;;;;;;;7.67;2.83;;;;;;;22.16;67.89;99960.34;5053312;28;20229;-74
2023/09/21 09:00:16;;;;;;;6.80;2.83;;;;;;;22.22;66.89;99961.34;5054700;28;20684;-74
2023/09/21 09:02:43;;;;;;;5.83;2.60;;;;;;;22.29;67.29;99958.50;5053018;28;20206;-74
2023/09/21 09:05:11;;;;;;;5.00;2.70;;;;;;;22.39;66.33;99948.66;5052423;28;20285;-74
2023/09/21 09:07:40;;;;;;;4.50;2.57;;;;;;;22.48;64.84;99954.25;5054125;28;20957;-74
2023/09/21 09:10:09;;;;;;;3.93;2.93;;;;;;;22.53;65.48;99946.44;5052543;28;20226;-74
2023/09/21 09:12:36;;;;;;;7.77;2.60;;;;;;;22.59;64.50;99954.75;5051963;28;20202;-74
2023/09/21 09:15:05;;;;;;;3.30;2.43;;;;;;;22.64;64.63;99951.56;5046051;28;20198;-74
2023/09/21 09:17:32;;;;;;;4.53;2.50;;;;;;;22.71;64.33;99948.72;5052319;28;20214;-73
2023/09/21 09:20:02;;;;;;;4.50;2.80;;;;;;;22.77;63.17;99936.25;5052059;28;20207;-74
2023/09/21 09:22:29;;;;;;;5.87;2.77;;;;;;;22.84;63.08;99936.06;5051496;28;20207;-74
2023/09/21 09:24:58;;;;;;;5.07;2.67;;;;;;;22.92;64.78;99934.72;5051399;28;20919;-74
2023/09/21 09:27:24;;;;;;;3.67;2.67;;;;;;;22.99;64.53;99931.84;5052770;28;20207;-74
2023/09/21 09:29:52;;;;;;;3.27;2.50;;;;;;;23.07;62.47;99925.09;5052714;28;20213;-73
2023/09/21 09:32:19;;;;;;;5.53;2.70;;;;;;;23.11;63.48;99925.72;5051596;28;20202;-74
2023/09/21 09:34:47;;;;;;;7.35;2.60;;;;;;;23.17;63.39;99924.81;5052576;28;20202;-74
2023/09/21 09:37:15;;;;;;;4.03;2.37;;;;;;;23.24;64.35;99923.88;5049649;28;20210;-74
2023/09/21 09:39:42;;;;;;;3.33;2.50;;;;;;;23.36;62.64;99919.72;5050095;28;20206;-74
2023/09/21 09:42:10;;;;;;;6.05;2.45;;;;;;;23.44;63.38;99929.88;5051980;28;20203;-74
2023/09/21 09:44:42;;;;;;;3.70;2.30;;;;;;;23.53;62.21;99925.38;5032947;28;20206;-74
2023/09/21 09:47:12;;;;;;;2.88;2.17;;;;;;;23.62;62.42;99924.00;5048583;28;20224;-74
2023/09/21 09:49:40;;;;;;;3.53;2.40;;;;;;;23.73;61.67;99919.06;5050501;28;20352;-74
2023/09/21 09:52:10;;;;;;;2.55;2.05;;;;;;;23.78;61.78;99913.88;5049967;28;20230;-74
2023/09/21 09:54:37;;;;;;;3.92;2.33;;;;;;;23.87;62.90;99908.59;5051126;28;20215;-74
2023/09/21 09:57:08;;;;;;;2.80;2.28;;;;;;;23.96;61.10;99911.44;5049830;28;20210;-73
2023/09/21 09:59:36;;;;;;;3.55;2.10;;;;;;;24.05;61.61;99908.09;5027107;28;20226;-74
2023/09/21 10:02:05;;;;;;;4.10;2.20;;;;;;;24.15;59.90;99907.03;5048372;28;20207;-74
2023/09/21 10:04:34;;;;;;;5.15;2.67;;;;;;;24.19;59.86;99913.81;5048459;28;20238;-74
2023/09/21 10:07:00;;;;;;;3.47;2.65;;;;;;;24.25;60.10;99903.97;5048703;28;20198;-74
2023/09/21 10:09:27;;;;;;;3.60;2.30;;;;;;;24.33;60.27;99905.28;5046844;28;20233;-74
2023/09/21 10:11:55;;;;;;;2.90;2.20;;;;;;;24.41;60.54;99895.75;5048113;28;20194;-74
2023/09/21 10:14:24;;;;;;;4.65;2.35;;;;;;;24.51;59.78;99888.53;5049514;28;20199;-74
2023/09/21 10:16:56;;;;;;;3.33;2.20;;;;;;;24.61;58.76;99885.47;5046216;28;20553;-74
2023/09/21 10:19:25;;;;;;;4.22;2.60;;;;;;;24.68;59.01;99874.47;5046970;28;20222;-74
2023/09/21 10:21:54;;;;;;;4.53;2.40;;;;;;;24.75;60.55;99881.56;5029802;28;20206;-74
2023/09/21 10:24:21;;;;;;;2.97;2.38;;;;;;;24.84;58.53;99876.22;5046239;28;20224;-74
2023/09/21 10:26:50;;;;;;;7.10;2.67;;;;;;;24.95;57.96;99885.50;5046801;28;20206;-74
2023/09/21 10:29:19;;;;;;;4.10;2.72;;;;;;;25.00;58.58;99873.34;5048051;28;20376;-74
2023/09/21 10:31:53;;;;;;;5.53;2.40;;;;;;;25.09;56.58;99866.09;5046999;28;20206;-74
2023/09/21 10:34:22;;;;;;;2.92;2.30;;;;;;;25.17;59.23;99867.31;5046351;28;20615;-74
2023/09/21 10:36:50;;;;;;;3.53;2.30;;;;;;;25.26;57.55;99867.44;5046823;28;20202;-74
2023/09/21 10:39:29;;;;;;;4.15;2.45;;;;;;;25.35;57.06;99861.31;5045545;28;20705;-74
2023/09/21 10:42:17;;;;;;;3.80;2.35;;;;;;;25.39;56.83;99859.97;5048482;28;20287;-74
2023/09/21 10:45:03;;;;;;;3.63;2.30;;;;;;;25.43;56.60;99849.81;5046386;28;20206;-74
2023/09/21 10:47:35;;;;;;;3.33;2.53;;;;;;;25.48;56.32;99845.78;5046967;28;20210;-74
2023/09/21 10:50:03;;;;;;;3.53;2.13;;;;;;;25.56;57.80;99847.78;5045452;28;20221;-74
2023/09/21 10:52:30;;;;;;;4.80;2.60;;;;;;;25.61;57.26;99841.78;5047029;28;20588;-74
2023/09/21 10:54:57;;;;;;;6.05;2.55;;;;;;;25.69;54.67;99843.00;5031391;28;20234;-74
2023/09/21 10:57:25;;;;;;;3.67;2.30;;;;;;;25.75;54.69;99838.53;5046181;28;20245;-74
2023/09/21 10:59:52;;;;;;;3.08;2.05;;;;;;;25.82;54.90;99838.28;5044099;28;20194;-74
2023/09/21 11:02:21;;;;;;;5.82;2.20;;;;;;;25.87;53.42;99832.28;5045160;28;20462;-74
2023/09/21 11:04:49;;;;;;;4.03;2.20;;;;;;;25.94;52.55;99832.00;5047328;28;20769;-74
2023/09/21 11:07:16;;;;;;;3.63;2.47;;;;;;;25.97;54.90;99833.06;5046288;28;20199;-74
2023/09/21 11:09:43;;;;;;;5.10;2.50;;;;;;;26.02;55.13;99824.38;5048724;28;21214;-74
2023/09/21 11:12:13;;;;;;;5.38;2.33;;;;;;;26.08;53.65;99828.75;5047469;28;20789;-73
2023/09/21 11:14:41;;;;;;;6.93;2.20;;;;;;;26.15;51.79;99827.72;5047387;28;20214;-74
2023/09/21 11:17:11;;;;;;;4.47;2.25;;;;;;;26.17;51.79;99815.25;5046823;28;20210;-74
2023/09/21 11:19:39;;;;;;;3.63;2.70;;;;;;;26.24;51.18;99814.94;5046881;28;20316;-74
2023/09/21 11:22:06;;;;;;;6.60;2.67;;;;;;;26.26;52.36;99819.91;5048894;28;20210;-74
2023/09/21 11:24:33;;;;;;;4.97;2.42;;;;;;;26.29;53.97;99808.19;5050666;28;20210;-74
2023/09/21 11:27:03;;;;;;;4.00;2.60;;;;;;;26.33;51.19;99811.50;5049717;28;20237;-74
2023/09/21 11:29:30;;;;;;;6.30;2.92;;;;;;;26.36;51.38;99797.06;5033571;28;20226;-74
2023/09/21 11:31:56;;;;;;;5.80;2.45;;;;;;;26.40;51.15;99793.00;5032867;28;20395;-75
2023/09/21 11:34:22;;;;;;;4.18;2.60;;;;;;;26.46;51.42;99790.47;5050920;28;20202;-74
2023/09/21 11:36:51;;;;;;;7.68;2.85;;;;;;;26.52;53.70;99788.66;5049488;28;20241;-74